Huvudsida
METAR-TAF:

METAR-TAF

Flygplatser :

Kunming Changshui International Airport

Kunming, Kina

latitud: 25-01N, longitud: 102-41E, höjd: 1892 m

Aktuellt väderrapport

Denna rapport gjordes för 43 minuter sedan, klockan 04:00 UTC
Vind 17 kt från väst/sydväst
Temperatur 17°C
Fuktighet 52%
Tryck 1022 hPa
Sikt 10 km eller mer
Spridda moln på en höjd av 2600 ft

METAR: ZPPP 150400Z 24009MPS 9999 SCT026 17/07 Q1022 NOSIG

Tid: 12:43 (04:43 UTC)

Väderprognos

Denna rapport gjordes för 9 timmar och 31 minuter sedan, klockan 19:12 UTC
Prognos gäller från 15 kl. 00 UTC till 15 kl. 24 UTC
Vind 14 kt från sydväst
Sikt 10 km eller mer
Inga moln under 1 500 m eller inga cumulonimbus

TAF: ZPPP 141912Z 1500/1524 22007MPS CAVOK TX20/1508Z TN07/1523Z

Aktuella väderrapporter och prognoser från 4000 flygplatser (METAR- och TAF-rapporter).

De tillgängliga stationerna syns som gula och röda prickar på kartan.

För musen över prickarna för att se namnen på stationerna.

Klicka sedan för att få väderrapporter och prognoser.

För att ändra kartan: Klicka på de gröna knapparna med ett svart kors på för att zooma in; den gröna knappen med ett streck på för att zooma ut; eller på de gröna pilarna för angränsande kartor.


METAR-TAF: